sensor_id;sensor_type;location;lat;lon;timestamp;P1;durP1;ratioP1;P2;durP2;ratioP2
22711;SDS011;11523;50.390;8.072;2024-01-30T00:01:40;37.90;;;24.73;;
22711;SDS011;11523;50.390;8.072;2024-01-30T00:04:12;35.63;;;25.25;;
22711;SDS011;11523;50.390;8.072;2024-01-30T00:06:38;34.40;;;23.77;;
22711;SDS011;11523;50.390;8.072;2024-01-30T00:09:04;33.97;;;23.50;;
22711;SDS011;11523;50.390;8.072;2024-01-30T00:11:30;33.58;;;22.40;;
22711;SDS011;11523;50.390;8.072;2024-01-30T00:13:56;34.53;;;22.60;;
22711;SDS011;11523;50.390;8.072;2024-01-30T00:16:22;32.80;;;23.23;;
22711;SDS011;11523;50.390;8.072;2024-01-30T00:18:49;34.20;;;23.23;;
22711;SDS011;11523;50.390;8.072;2024-01-30T00:21:15;33.53;;;22.98;;
22711;SDS011;11523;50.390;8.072;2024-01-30T00:23:41;35.13;;;23.38;;
22711;SDS011;11523;50.390;8.072;2024-01-30T00:26:07;33.95;;;23.05;;
22711;SDS011;11523;50.390;8.072;2024-01-30T00:28:33;34.75;;;24.45;;
22711;SDS011;11523;50.390;8.072;2024-01-30T00:30:59;36.53;;;23.52;;
22711;SDS011;11523;50.390;8.072;2024-01-30T00:33:25;34.90;;;23.65;;
22711;SDS011;11523;50.390;8.072;2024-01-30T00:35:51;35.50;;;24.30;;
22711;SDS011;11523;50.390;8.072;2024-01-30T00:38:16;31.85;;;23.33;;
22711;SDS011;11523;50.390;8.072;2024-01-30T00:40:49;34.40;;;23.48;;
22711;SDS011;11523;50.390;8.072;2024-01-30T00:43:15;36.47;;;26.00;;
22711;SDS011;11523;50.390;8.072;2024-01-30T00:45:43;32.30;;;24.17;;
22711;SDS011;11523;50.390;8.072;2024-01-30T00:48:09;30.70;;;22.42;;
22711;SDS011;11523;50.390;8.072;2024-01-30T00:50:35;32.60;;;22.98;;
22711;SDS011;11523;50.390;8.072;2024-01-30T00:53:01;33.55;;;23.35;;
22711;SDS011;11523;50.390;8.072;2024-01-30T00:55:27;33.78;;;23.77;;
22711;SDS011;11523;50.390;8.072;2024-01-30T00:57:52;33.42;;;23.88;;
22711;SDS011;11523;50.390;8.072;2024-01-30T01:00:18;31.15;;;22.42;;
22711;SDS011;11523;50.390;8.072;2024-01-30T01:02:45;33.42;;;23.13;;
22711;SDS011;11523;50.390;8.072;2024-01-30T01:05:11;29.88;;;22.20;;
22711;SDS011;11523;50.390;8.072;2024-01-30T01:07:37;30.02;;;22.30;;
22711;SDS011;11523;50.390;8.072;2024-01-30T01:10:05;35.10;;;23.08;;
22711;SDS011;11523;50.390;8.072;2024-01-30T01:12:31;34.78;;;25.00;;
22711;SDS011;11523;50.390;8.072;2024-01-30T01:14:57;34.85;;;23.25;;
22711;SDS011;11523;50.390;8.072;2024-01-30T01:17:23;33.92;;;23.63;;
22711;SDS011;11523;50.390;8.072;2024-01-30T01:19:48;33.50;;;22.92;;
22711;SDS011;11523;50.390;8.072;2024-01-30T01:22:15;34.42;;;23.48;;
22711;SDS011;11523;50.390;8.072;2024-01-30T01:24:42;31.65;;;21.15;;
22711;SDS011;11523;50.390;8.072;2024-01-30T01:27:08;30.25;;;21.90;;
22711;SDS011;11523;50.390;8.072;2024-01-30T01:29:34;36.17;;;23.30;;
22711;SDS011;11523;50.390;8.072;2024-01-30T01:32:00;29.73;;;22.60;;
22711;SDS011;11523;50.390;8.072;2024-01-30T01:34:25;32.35;;;23.08;;
22711;SDS011;11523;50.390;8.072;2024-01-30T01:36:51;31.30;;;21.83;;
22711;SDS011;11523;50.390;8.072;2024-01-30T01:39:20;31.17;;;22.92;;
22711;SDS011;11523;50.390;8.072;2024-01-30T01:41:46;29.52;;;21.55;;
22711;SDS011;11523;50.390;8.072;2024-01-30T01:44:12;30.92;;;23.08;;
22711;SDS011;11523;50.390;8.072;2024-01-30T01:46:38;33.22;;;22.38;;
22711;SDS011;11523;50.390;8.072;2024-01-30T01:49:05;32.50;;;22.45;;
22711;SDS011;11523;50.390;8.072;2024-01-30T01:51:31;33.78;;;21.90;;
22711;SDS011;11523;50.390;8.072;2024-01-30T01:54:00;31.48;;;22.42;;
22711;SDS011;11523;50.390;8.072;2024-01-30T01:56:26;29.10;;;20.92;;
22711;SDS011;11523;50.390;8.072;2024-01-30T01:58:53;31.45;;;21.42;;
22711;SDS011;11523;50.390;8.072;2024-01-30T02:01:20;28.98;;;21.55;;
22711;SDS011;11523;50.390;8.072;2024-01-30T02:03:52;31.58;;;22.98;;
22711;SDS011;11523;50.390;8.072;2024-01-30T02:06:18;29.92;;;21.45;;
22711;SDS011;11523;50.390;8.072;2024-01-30T02:08:44;29.00;;;21.10;;
22711;SDS011;11523;50.390;8.072;2024-01-30T02:11:10;30.40;;;20.70;;
22711;SDS011;11523;50.390;8.072;2024-01-30T02:13:37;30.83;;;21.35;;
22711;SDS011;11523;50.390;8.072;2024-01-30T02:16:03;31.27;;;21.17;;
22711;SDS011;11523;50.390;8.072;2024-01-30T02:18:29;26.35;;;19.63;;
22711;SDS011;11523;50.390;8.072;2024-01-30T02:20:56;26.38;;;19.38;;
22711;SDS011;11523;50.390;8.072;2024-01-30T02:23:23;32.38;;;20.88;;
22711;SDS011;11523;50.390;8.072;2024-01-30T02:25:52;27.92;;;20.83;;
22711;SDS011;11523;50.390;8.072;2024-01-30T02:28:19;30.75;;;21.55;;
22711;SDS011;11523;50.390;8.072;2024-01-30T02:30:45;29.70;;;21.52;;
22711;SDS011;11523;50.390;8.072;2024-01-30T02:33:12;28.95;;;20.38;;
22711;SDS011;11523;50.390;8.072;2024-01-30T02:35:38;29.98;;;21.27;;
22711;SDS011;11523;50.390;8.072;2024-01-30T02:38:04;30.48;;;21.45;;
22711;SDS011;11523;50.390;8.072;2024-01-30T02:40:30;33.55;;;21.58;;
22711;SDS011;11523;50.390;8.072;2024-01-30T02:43:02;30.30;;;20.95;;
22711;SDS011;11523;50.390;8.072;2024-01-30T02:45:28;30.95;;;21.38;;
22711;SDS011;11523;50.390;8.072;2024-01-30T02:47:54;28.60;;;21.63;;
22711;SDS011;11523;50.390;8.072;2024-01-30T02:50:20;27.40;;;20.98;;
22711;SDS011;11523;50.390;8.072;2024-01-30T02:52:46;27.58;;;20.73;;
22711;SDS011;11523;50.390;8.072;2024-01-30T02:55:12;30.48;;;21.70;;
22711;SDS011;11523;50.390;8.072;2024-01-30T02:57:38;27.23;;;20.13;;
22711;SDS011;11523;50.390;8.072;2024-01-30T03:00:05;29.13;;;21.10;;
22711;SDS011;11523;50.390;8.072;2024-01-30T03:02:31;34.75;;;21.13;;
22711;SDS011;11523;50.390;8.072;2024-01-30T03:04:58;28.90;;;20.23;;
22711;SDS011;11523;50.390;8.072;2024-01-30T03:07:24;33.63;;;22.17;;
22711;SDS011;11523;50.390;8.072;2024-01-30T03:09:50;35.17;;;21.65;;
22711;SDS011;11523;50.390;8.072;2024-01-30T03:12:16;27.20;;;20.40;;
22711;SDS011;11523;50.390;8.072;2024-01-30T03:14:41;31.08;;;20.45;;
22711;SDS011;11523;50.390;8.072;2024-01-30T03:17:07;30.40;;;21.25;;
22711;SDS011;11523;50.390;8.072;2024-01-30T03:19:33;30.50;;;20.40;;
22711;SDS011;11523;50.390;8.072;2024-01-30T03:21:59;28.40;;;20.77;;
22711;SDS011;11523;50.390;8.072;2024-01-30T03:24:25;30.60;;;20.70;;
22711;SDS011;11523;50.390;8.072;2024-01-30T03:26:51;27.42;;;19.92;;
22711;SDS011;11523;50.390;8.072;2024-01-30T03:29:17;27.05;;;19.67;;
22711;SDS011;11523;50.390;8.072;2024-01-30T03:31:43;29.40;;;19.38;;
22711;SDS011;11523;50.390;8.072;2024-01-30T03:34:16;28.33;;;20.58;;
22711;SDS011;11523;50.390;8.072;2024-01-30T03:36:42;28.17;;;19.85;;
22711;SDS011;11523;50.390;8.072;2024-01-30T03:39:08;31.45;;;19.90;;
22711;SDS011;11523;50.390;8.072;2024-01-30T03:41:34;28.60;;;19.95;;
22711;SDS011;11523;50.390;8.072;2024-01-30T03:44:01;31.25;;;20.00;;
22711;SDS011;11523;50.390;8.072;2024-01-30T03:46:27;27.55;;;20.25;;
22711;SDS011;11523;50.390;8.072;2024-01-30T03:48:53;29.38;;;20.42;;
22711;SDS011;11523;50.390;8.072;2024-01-30T03:51:19;28.13;;;20.60;;
22711;SDS011;11523;50.390;8.072;2024-01-30T03:53:45;27.55;;;19.85;;
22711;SDS011;11523;50.390;8.072;2024-01-30T03:56:13;33.35;;;19.65;;
22711;SDS011;11523;50.390;8.072;2024-01-30T03:58:39;32.90;;;20.70;;
22711;SDS011;11523;50.390;8.072;2024-01-30T04:01:06;29.88;;;20.40;;
22711;SDS011;11523;50.390;8.072;2024-01-30T04:03:32;29.25;;;20.27;;
22711;SDS011;11523;50.390;8.072;2024-01-30T04:05:58;27.20;;;19.95;;
22711;SDS011;11523;50.390;8.072;2024-01-30T04:08:23;28.85;;;19.90;;
22711;SDS011;11523;50.390;8.072;2024-01-30T04:10:49;29.85;;;19.52;;
22711;SDS011;11523;50.390;8.072;2024-01-30T04:13:15;28.13;;;19.73;;
22711;SDS011;11523;50.390;8.072;2024-01-30T04:15:41;28.15;;;18.98;;
22711;SDS011;11523;50.390;8.072;2024-01-30T04:18:07;25.88;;;18.25;;
22711;SDS011;11523;50.390;8.072;2024-01-30T04:20:33;28.38;;;18.05;;
22711;SDS011;11523;50.390;8.072;2024-01-30T04:22:59;24.40;;;18.75;;
22711;SDS011;11523;50.390;8.072;2024-01-30T04:25:25;26.55;;;18.85;;
22711;SDS011;11523;50.390;8.072;2024-01-30T04:27:51;30.50;;;18.67;;
22711;SDS011;11523;50.390;8.072;2024-01-30T04:30:17;30.35;;;18.80;;
22711;SDS011;11523;50.390;8.072;2024-01-30T04:32:43;29.25;;;19.10;;
22711;SDS011;11523;50.390;8.072;2024-01-30T04:35:09;27.42;;;18.45;;
22711;SDS011;11523;50.390;8.072;2024-01-30T04:37:35;29.65;;;19.65;;
22711;SDS011;11523;50.390;8.072;2024-01-30T04:40:01;29.40;;;18.52;;
22711;SDS011;11523;50.390;8.072;2024-01-30T04:42:28;26.00;;;18.75;;
22711;SDS011;11523;50.390;8.072;2024-01-30T04:44:54;27.35;;;19.00;;
22711;SDS011;11523;50.390;8.072;2024-01-30T04:47:19;26.58;;;18.35;;
22711;SDS011;11523;50.390;8.072;2024-01-30T04:49:52;27.80;;;19.15;;
22711;SDS011;11523;50.390;8.072;2024-01-30T04:52:18;29.05;;;18.67;;
22711;SDS011;11523;50.390;8.072;2024-01-30T04:54:44;26.95;;;19.45;;
22711;SDS011;11523;50.390;8.072;2024-01-30T04:57:10;27.70;;;19.65;;
22711;SDS011;11523;50.390;8.072;2024-01-30T04:59:37;26.33;;;19.25;;
22711;SDS011;11523;50.390;8.072;2024-01-30T05:02:03;27.70;;;19.13;;
22711;SDS011;11523;50.390;8.072;2024-01-30T05:04:29;28.30;;;19.25;;
22711;SDS011;11523;50.390;8.072;2024-01-30T05:06:55;25.13;;;18.52;;
22711;SDS011;11523;50.390;8.072;2024-01-30T05:09:21;25.60;;;18.13;;
22711;SDS011;11523;50.390;8.072;2024-01-30T05:11:47;26.60;;;18.30;;
22711;SDS011;11523;50.390;8.072;2024-01-30T05:14:13;29.00;;;20.20;;
22711;SDS011;11523;50.390;8.072;2024-01-30T05:16:40;32.53;;;20.67;;
22711;SDS011;11523;50.390;8.072;2024-01-30T05:19:06;38.92;;;21.25;;
22711;SDS011;11523;50.390;8.072;2024-01-30T05:21:32;38.67;;;21.70;;
22711;SDS011;11523;50.390;8.072;2024-01-30T05:23:58;55.05;;;23.55;;
22711;SDS011;11523;50.390;8.072;2024-01-30T05:26:24;43.38;;;21.67;;
22711;SDS011;11523;50.390;8.072;2024-01-30T05:28:50;35.03;;;20.95;;
22711;SDS011;11523;50.390;8.072;2024-01-30T05:31:16;37.50;;;21.23;;
22711;SDS011;11523;50.390;8.072;2024-01-30T05:33:42;34.40;;;21.23;;
22711;SDS011;11523;50.390;8.072;2024-01-30T05:36:08;39.53;;;22.13;;
22711;SDS011;11523;50.390;8.072;2024-01-30T05:38:37;41.10;;;22.40;;
22711;SDS011;11523;50.390;8.072;2024-01-30T05:41:03;40.80;;;23.48;;
22711;SDS011;11523;50.390;8.072;2024-01-30T05:43:29;40.30;;;23.40;;
22711;SDS011;11523;50.390;8.072;2024-01-30T05:45:55;46.83;;;23.48;;
22711;SDS011;11523;50.390;8.072;2024-01-30T05:48:20;47.05;;;22.88;;
22711;SDS011;11523;50.390;8.072;2024-01-30T05:50:46;43.10;;;23.42;;
22711;SDS011;11523;50.390;8.072;2024-01-30T05:53:12;48.67;;;22.83;;
22711;SDS011;11523;50.390;8.072;2024-01-30T05:55:38;44.75;;;23.20;;
22711;SDS011;11523;50.390;8.072;2024-01-30T05:58:04;48.20;;;25.38;;
22711;SDS011;11523;50.390;8.072;2024-01-30T06:00:30;43.95;;;23.75;;
22711;SDS011;11523;50.390;8.072;2024-01-30T06:02:56;48.33;;;23.98;;
22711;SDS011;11523;50.390;8.072;2024-01-30T06:05:22;77.45;;;25.65;;
22711;SDS011;11523;50.390;8.072;2024-01-30T06:07:48;42.90;;;23.05;;
22711;SDS011;11523;50.390;8.072;2024-01-30T06:10:14;42.58;;;22.50;;
22711;SDS011;11523;50.390;8.072;2024-01-30T06:12:40;44.50;;;22.50;;
22711;SDS011;11523;50.390;8.072;2024-01-30T06:15:06;46.35;;;23.17;;
22711;SDS011;11523;50.390;8.072;2024-01-30T06:17:32;41.13;;;23.85;;
22711;SDS011;11523;50.390;8.072;2024-01-30T06:19:58;44.50;;;24.13;;
22711;SDS011;11523;50.390;8.072;2024-01-30T06:22:24;46.65;;;23.77;;
22711;SDS011;11523;50.390;8.072;2024-01-30T06:24:50;69.38;;;25.38;;
22711;SDS011;11523;50.390;8.072;2024-01-30T06:27:16;41.45;;;23.63;;
22711;SDS011;11523;50.390;8.072;2024-01-30T06:29:45;39.63;;;22.52;;
22711;SDS011;11523;50.390;8.072;2024-01-30T06:32:11;36.97;;;22.55;;
22711;SDS011;11523;50.390;8.072;2024-01-30T06:34:37;52.25;;;23.55;;
22711;SDS011;11523;50.390;8.072;2024-01-30T06:37:04;50.78;;;23.05;;
22711;SDS011;11523;50.390;8.072;2024-01-30T06:39:37;88.35;;;25.15;;
22711;SDS011;11523;50.390;8.072;2024-01-30T06:42:04;277.30;;;29.40;;
22711;SDS011;11523;50.390;8.072;2024-01-30T06:44:30;350.25;;;30.35;;
22711;SDS011;11523;50.390;8.072;2024-01-30T06:46:56;364.13;;;32.53;;
22711;SDS011;11523;50.390;8.072;2024-01-30T06:49:21;82.30;;;23.42;;
22711;SDS011;11523;50.390;8.072;2024-01-30T06:51:47;267.48;;;29.58;;
22711;SDS011;11523;50.390;8.072;2024-01-30T06:54:13;105.40;;;26.48;;
22711;SDS011;11523;50.390;8.072;2024-01-30T06:56:39;46.58;;;24.05;;
22711;SDS011;11523;50.390;8.072;2024-01-30T06:59:05;78.25;;;23.20;;
22711;SDS011;11523;50.390;8.072;2024-01-30T07:01:31;53.60;;;24.55;;
22711;SDS011;11523;50.390;8.072;2024-01-30T07:03:57;53.88;;;24.75;;
22711;SDS011;11523;50.390;8.072;2024-01-30T07:06:23;45.33;;;23.23;;
22711;SDS011;11523;50.390;8.072;2024-01-30T07:08:49;57.92;;;24.08;;
22711;SDS011;11523;50.390;8.072;2024-01-30T07:11:19;50.67;;;22.60;;
22711;SDS011;11523;50.390;8.072;2024-01-30T07:13:46;71.13;;;23.02;;
22711;SDS011;11523;50.390;8.072;2024-01-30T07:16:13;52.45;;;23.55;;
22711;SDS011;11523;50.390;8.072;2024-01-30T07:18:39;48.58;;;22.42;;
22711;SDS011;11523;50.390;8.072;2024-01-30T07:21:05;48.38;;;21.95;;
22711;SDS011;11523;50.390;8.072;2024-01-30T07:23:30;51.85;;;21.67;;
22711;SDS011;11523;50.390;8.072;2024-01-30T07:25:59;42.58;;;22.38;;
22711;SDS011;11523;50.390;8.072;2024-01-30T07:28:24;83.47;;;22.83;;
22711;SDS011;11523;50.390;8.072;2024-01-30T07:30:50;49.05;;;21.58;;
22711;SDS011;11523;50.390;8.072;2024-01-30T07:33:16;45.35;;;21.50;;
22711;SDS011;11523;50.390;8.072;2024-01-30T07:35:43;58.25;;;21.38;;
22711;SDS011;11523;50.390;8.072;2024-01-30T07:38:08;81.43;;;28.60;;
22711;SDS011;11523;50.390;8.072;2024-01-30T07:40:34;64.90;;;22.85;;
22711;SDS011;11523;50.390;8.072;2024-01-30T07:43:00;45.35;;;21.92;;
22711;SDS011;11523;50.390;8.072;2024-01-30T07:45:28;69.18;;;23.50;;
22711;SDS011;11523;50.390;8.072;2024-01-30T07:47:57;44.95;;;22.27;;
22711;SDS011;11523;50.390;8.072;2024-01-30T07:50:24;37.72;;;22.83;;
22711;SDS011;11523;50.390;8.072;2024-01-30T07:52:50;53.38;;;24.15;;
22711;SDS011;11523;50.390;8.072;2024-01-30T07:55:19;83.38;;;23.88;;
22711;SDS011;11523;50.390;8.072;2024-01-30T07:57:46;85.88;;;24.50;;
22711;SDS011;11523;50.390;8.072;2024-01-30T08:00:13;41.80;;;23.10;;
22711;SDS011;11523;50.390;8.072;2024-01-30T08:02:39;51.53;;;24.20;;
22711;SDS011;11523;50.390;8.072;2024-01-30T08:05:05;44.92;;;24.55;;
22711;SDS011;11523;50.390;8.072;2024-01-30T08:07:31;44.20;;;24.08;;
22711;SDS011;11523;50.390;8.072;2024-01-30T08:09:57;34.17;;;22.67;;
22711;SDS011;11523;50.390;8.072;2024-01-30T08:12:22;38.92;;;24.52;;
22711;SDS011;11523;50.390;8.072;2024-01-30T08:14:48;46.88;;;24.17;;
22711;SDS011;11523;50.390;8.072;2024-01-30T08:17:14;39.95;;;22.60;;
22711;SDS011;11523;50.390;8.072;2024-01-30T08:19:40;35.72;;;22.00;;
22711;SDS011;11523;50.390;8.072;2024-01-30T08:22:06;33.88;;;22.25;;
22711;SDS011;11523;50.390;8.072;2024-01-30T08:24:32;36.63;;;22.60;;
22711;SDS011;11523;50.390;8.072;2024-01-30T08:26:58;30.42;;;20.90;;
22711;SDS011;11523;50.390;8.072;2024-01-30T08:29:24;32.28;;;21.23;;
22711;SDS011;11523;50.390;8.072;2024-01-30T08:31:50;34.33;;;23.27;;
22711;SDS011;11523;50.390;8.072;2024-01-30T08:34:16;34.28;;;24.02;;
22711;SDS011;11523;50.390;8.072;2024-01-30T08:36:42;38.47;;;22.85;;
22711;SDS011;11523;50.390;8.072;2024-01-30T08:39:08;35.28;;;23.45;;
22711;SDS011;11523;50.390;8.072;2024-01-30T08:41:34;36.20;;;22.73;;
22711;SDS011;11523;50.390;8.072;2024-01-30T08:43:59;36.95;;;23.65;;
22711;SDS011;11523;50.390;8.072;2024-01-30T08:46:25;33.85;;;23.75;;
22711;SDS011;11523;50.390;8.072;2024-01-30T08:48:51;38.13;;;22.88;;
22711;SDS011;11523;50.390;8.072;2024-01-30T08:51:18;32.88;;;22.40;;
22711;SDS011;11523;50.390;8.072;2024-01-30T08:53:44;35.60;;;23.08;;
22711;SDS011;11523;50.390;8.072;2024-01-30T08:56:10;34.53;;;24.23;;
22711;SDS011;11523;50.390;8.072;2024-01-30T08:58:35;37.78;;;24.83;;
22711;SDS011;11523;50.390;8.072;2024-01-30T09:01:01;33.10;;;22.75;;
22711;SDS011;11523;50.390;8.072;2024-01-30T09:03:30;35.45;;;24.52;;
22711;SDS011;11523;50.390;8.072;2024-01-30T09:05:56;35.33;;;23.38;;
22711;SDS011;11523;50.390;8.072;2024-01-30T09:08:22;32.47;;;23.58;;
22711;SDS011;11523;50.390;8.072;2024-01-30T09:10:48;34.58;;;23.50;;
22711;SDS011;11523;50.390;8.072;2024-01-30T09:13:15;33.35;;;23.80;;
22711;SDS011;11523;50.390;8.072;2024-01-30T09:15:41;34.33;;;24.45;;
22711;SDS011;11523;50.390;8.072;2024-01-30T09:18:09;33.85;;;24.55;;
22711;SDS011;11523;50.390;8.072;2024-01-30T09:20:35;36.85;;;24.23;;
22711;SDS011;11523;50.390;8.072;2024-01-30T09:23:01;34.70;;;23.77;;
22711;SDS011;11523;50.390;8.072;2024-01-30T09:25:26;36.80;;;24.48;;
22711;SDS011;11523;50.390;8.072;2024-01-30T09:27:52;37.10;;;25.20;;
22711;SDS011;11523;50.390;8.072;2024-01-30T09:30:18;40.03;;;24.83;;
22711;SDS011;11523;50.390;8.072;2024-01-30T09:32:44;41.40;;;27.30;;
22711;SDS011;11523;50.390;8.072;2024-01-30T09:35:16;38.75;;;25.73;;
22711;SDS011;11523;50.390;8.072;2024-01-30T09:37:42;40.20;;;26.48;;
22711;SDS011;11523;50.390;8.072;2024-01-30T09:40:08;44.05;;;27.52;;
22711;SDS011;11523;50.390;8.072;2024-01-30T09:42:35;40.83;;;26.83;;
22711;SDS011;11523;50.390;8.072;2024-01-30T09:45:02;39.13;;;25.20;;
22711;SDS011;11523;50.390;8.072;2024-01-30T09:47:31;35.10;;;25.27;;
22711;SDS011;11523;50.390;8.072;2024-01-30T09:49:57;34.35;;;22.77;;
22711;SDS011;11523;50.390;8.072;2024-01-30T09:52:24;31.38;;;21.88;;
22711;SDS011;11523;50.390;8.072;2024-01-30T09:54:51;31.63;;;22.85;;
22711;SDS011;11523;50.390;8.072;2024-01-30T09:57:17;31.52;;;23.42;;
22711;SDS011;11523;50.390;8.072;2024-01-30T09:59:43;35.30;;;23.65;;
22711;SDS011;11523;50.390;8.072;2024-01-30T10:02:09;33.35;;;24.63;;
22711;SDS011;11523;50.390;8.072;2024-01-30T10:04:35;34.83;;;24.35;;
22711;SDS011;11523;50.390;8.072;2024-01-30T10:07:01;34.85;;;24.38;;
22711;SDS011;11523;50.390;8.072;2024-01-30T10:09:28;32.70;;;24.77;;
22711;SDS011;11523;50.390;8.072;2024-01-30T10:11:53;39.40;;;24.52;;
22711;SDS011;11523;50.390;8.072;2024-01-30T10:14:19;33.28;;;24.52;;
22711;SDS011;11523;50.390;8.072;2024-01-30T10:16:46;37.15;;;25.48;;
22711;SDS011;11523;50.390;8.072;2024-01-30T10:19:18;36.28;;;24.65;;
22711;SDS011;11523;50.390;8.072;2024-01-30T10:21:45;35.88;;;25.40;;
22711;SDS011;11523;50.390;8.072;2024-01-30T10:24:11;34.22;;;24.38;;
22711;SDS011;11523;50.390;8.072;2024-01-30T10:26:39;40.10;;;26.17;;
22711;SDS011;11523;50.390;8.072;2024-01-30T10:29:05;36.97;;;24.33;;
22711;SDS011;11523;50.390;8.072;2024-01-30T10:31:31;38.53;;;25.48;;
22711;SDS011;11523;50.390;8.072;2024-01-30T10:33:57;36.67;;;25.42;;
22711;SDS011;11523;50.390;8.072;2024-01-30T10:36:24;36.75;;;24.95;;
22711;SDS011;11523;50.390;8.072;2024-01-30T10:38:53;35.03;;;24.17;;
22711;SDS011;11523;50.390;8.072;2024-01-30T10:41:23;37.55;;;24.70;;
22711;SDS011;11523;50.390;8.072;2024-01-30T10:43:57;31.90;;;23.13;;
22711;SDS011;11523;50.390;8.072;2024-01-30T10:46:24;35.45;;;22.98;;
22711;SDS011;11523;50.390;8.072;2024-01-30T10:48:58;34.80;;;23.17;;
22711;SDS011;11523;50.390;8.072;2024-01-30T10:51:26;30.80;;;22.30;;
22711;SDS011;11523;50.390;8.072;2024-01-30T10:53:52;30.08;;;22.77;;
22711;SDS011;11523;50.390;8.072;2024-01-30T10:56:20;31.55;;;22.98;;
22711;SDS011;11523;50.390;8.072;2024-01-30T10:58:47;30.67;;;22.95;;
22711;SDS011;11523;50.390;8.072;2024-01-30T11:01:14;33.47;;;23.90;;
22711;SDS011;11523;50.390;8.072;2024-01-30T11:03:40;34.80;;;25.17;;
22711;SDS011;11523;50.390;8.072;2024-01-30T11:06:10;29.63;;;23.38;;
22711;SDS011;11523;50.390;8.072;2024-01-30T11:08:36;34.53;;;22.27;;
22711;SDS011;11523;50.390;8.072;2024-01-30T11:11:02;28.80;;;21.73;;
22711;SDS011;11523;50.390;8.072;2024-01-30T11:13:34;30.95;;;21.48;;
22711;SDS011;11523;50.390;8.072;2024-01-30T11:16:03;30.33;;;21.02;;
22711;SDS011;11523;50.390;8.072;2024-01-30T11:18:30;30.55;;;21.88;;
22711;SDS011;11523;50.390;8.072;2024-01-30T11:20:56;28.90;;;21.15;;
22711;SDS011;11523;50.390;8.072;2024-01-30T11:23:23;27.60;;;20.20;;
22711;SDS011;11523;50.390;8.072;2024-01-30T11:25:49;27.73;;;21.10;;
22711;SDS011;11523;50.390;8.072;2024-01-30T11:28:15;31.42;;;19.55;;
22711;SDS011;11523;50.390;8.072;2024-01-30T11:30:41;27.98;;;19.98;;
22711;SDS011;11523;50.390;8.072;2024-01-30T11:33:11;25.73;;;20.52;;
22711;SDS011;11523;50.390;8.072;2024-01-30T11:35:38;29.35;;;20.83;;
22711;SDS011;11523;50.390;8.072;2024-01-30T11:38:05;31.50;;;21.88;;
22711;SDS011;11523;50.390;8.072;2024-01-30T11:40:32;58.90;;;43.65;;
22711;SDS011;11523;50.390;8.072;2024-01-30T11:42:59;57.47;;;43.03;;
22711;SDS011;11523;50.390;8.072;2024-01-30T11:45:28;41.38;;;30.13;;
22711;SDS011;11523;50.390;8.072;2024-01-30T11:47:54;37.35;;;26.92;;
22711;SDS011;11523;50.390;8.072;2024-01-30T11:50:21;35.45;;;26.42;;
22711;SDS011;11523;50.390;8.072;2024-01-30T11:52:47;35.13;;;26.50;;
22711;SDS011;11523;50.390;8.072;2024-01-30T11:55:14;32.10;;;23.70;;
22711;SDS011;11523;50.390;8.072;2024-01-30T11:57:40;32.63;;;23.00;;
22711;SDS011;11523;50.390;8.072;2024-01-30T12:00:06;31.15;;;20.95;;
22711;SDS011;11523;50.390;8.072;2024-01-30T12:02:42;29.92;;;21.27;;
22711;SDS011;11523;50.390;8.072;2024-01-30T12:05:08;28.38;;;21.38;;
22711;SDS011;11523;50.390;8.072;2024-01-30T12:07:34;31.73;;;21.45;;
22711;SDS011;11523;50.390;8.072;2024-01-30T12:10:00;27.20;;;19.48;;
22711;SDS011;11523;50.390;8.072;2024-01-30T12:12:27;29.25;;;20.58;;
22711;SDS011;11523;50.390;8.072;2024-01-30T12:14:54;30.38;;;21.70;;
22711;SDS011;11523;50.390;8.072;2024-01-30T12:17:30;34.30;;;25.98;;
22711;SDS011;11523;50.390;8.072;2024-01-30T12:20:03;44.92;;;35.00;;
22711;SDS011;11523;50.390;8.072;2024-01-30T12:22:29;40.60;;;30.63;;
22711;SDS011;11523;50.390;8.072;2024-01-30T12:24:56;42.15;;;33.58;;
22711;SDS011;11523;50.390;8.072;2024-01-30T12:27:22;36.67;;;27.92;;
22711;SDS011;11523;50.390;8.072;2024-01-30T12:29:58;33.00;;;25.50;;
22711;SDS011;11523;50.390;8.072;2024-01-30T12:32:24;28.13;;;21.10;;
22711;SDS011;11523;50.390;8.072;2024-01-30T12:34:50;28.73;;;22.65;;
22711;SDS011;11523;50.390;8.072;2024-01-30T12:37:16;28.08;;;21.33;;
22711;SDS011;11523;50.390;8.072;2024-01-30T12:39:46;25.95;;;19.20;;
22711;SDS011;11523;50.390;8.072;2024-01-30T12:42:13;26.75;;;19.88;;
22711;SDS011;11523;50.390;8.072;2024-01-30T12:44:39;29.33;;;20.75;;
22711;SDS011;11523;50.390;8.072;2024-01-30T12:47:05;27.25;;;22.35;;
22711;SDS011;11523;50.390;8.072;2024-01-30T12:49:31;32.45;;;23.48;;
22711;SDS011;11523;50.390;8.072;2024-01-30T12:51:58;31.65;;;23.58;;
22711;SDS011;11523;50.390;8.072;2024-01-30T12:54:24;31.48;;;24.05;;
22711;SDS011;11523;50.390;8.072;2024-01-30T12:56:50;27.35;;;22.48;;
22711;SDS011;11523;50.390;8.072;2024-01-30T12:59:16;32.85;;;23.33;;
22711;SDS011;11523;50.390;8.072;2024-01-30T13:01:42;31.35;;;23.13;;
22711;SDS011;11523;50.390;8.072;2024-01-30T13:04:07;29.38;;;22.10;;
22711;SDS011;11523;50.390;8.072;2024-01-30T13:06:33;31.52;;;21.63;;
22711;SDS011;11523;50.390;8.072;2024-01-30T13:08:59;27.33;;;20.88;;
22711;SDS011;11523;50.390;8.072;2024-01-30T13:11:25;33.35;;;20.92;;
22711;SDS011;11523;50.390;8.072;2024-01-30T13:13:51;30.60;;;22.30;;
22711;SDS011;11523;50.390;8.072;2024-01-30T13:16:17;26.95;;;20.45;;
22711;SDS011;11523;50.390;8.072;2024-01-30T13:18:43;31.27;;;21.42;;
22711;SDS011;11523;50.390;8.072;2024-01-30T13:21:09;29.10;;;21.38;;
22711;SDS011;11523;50.390;8.072;2024-01-30T13:23:35;31.25;;;21.08;;
22711;SDS011;11523;50.390;8.072;2024-01-30T13:26:01;32.22;;;22.45;;
22711;SDS011;11523;50.390;8.072;2024-01-30T13:28:27;33.28;;;21.65;;
22711;SDS011;11523;50.390;8.072;2024-01-30T13:30:53;34.05;;;21.70;;
22711;SDS011;11523;50.390;8.072;2024-01-30T13:33:19;28.55;;;21.20;;
22711;SDS011;11523;50.390;8.072;2024-01-30T13:35:45;28.95;;;21.23;;
22711;SDS011;11523;50.390;8.072;2024-01-30T13:38:11;29.60;;;21.95;;
22711;SDS011;11523;50.390;8.072;2024-01-30T13:40:38;29.33;;;21.38;;
22711;SDS011;11523;50.390;8.072;2024-01-30T13:43:04;33.00;;;21.80;;
22711;SDS011;11523;50.390;8.072;2024-01-30T13:45:30;28.65;;;22.27;;
22711;SDS011;11523;50.390;8.072;2024-01-30T13:47:56;29.30;;;22.02;;
22711;SDS011;11523;50.390;8.072;2024-01-30T13:50:22;28.45;;;22.45;;
22711;SDS011;11523;50.390;8.072;2024-01-30T13:52:48;34.83;;;22.77;;
22711;SDS011;11523;50.390;8.072;2024-01-30T13:55:14;32.63;;;24.92;;
22711;SDS011;11523;50.390;8.072;2024-01-30T13:57:40;37.20;;;25.58;;
22711;SDS011;11523;50.390;8.072;2024-01-30T14:00:06;48.97;;;38.15;;
22711;SDS011;11523;50.390;8.072;2024-01-30T14:02:32;37.47;;;28.58;;
22711;SDS011;11523;50.390;8.072;2024-01-30T14:04:58;36.78;;;23.48;;
22711;SDS011;11523;50.390;8.072;2024-01-30T14:07:24;32.83;;;22.77;;
22711;SDS011;11523;50.390;8.072;2024-01-30T14:09:50;30.75;;;21.58;;
22711;SDS011;11523;50.390;8.072;2024-01-30T14:12:16;32.55;;;22.15;;
22711;SDS011;11523;50.390;8.072;2024-01-30T14:14:42;32.90;;;24.30;;
22711;SDS011;11523;50.390;8.072;2024-01-30T14:17:08;31.38;;;23.30;;